Time;durP1;ratioP1;P1;durP2;ratioP2;P2;SDS_P1;SDS_P2;PMS_P1;PMS_P2;Temp;Humidity;BMP_temperature;BMP_pressure;BME280_temperature;BME280_humidity;BME280_pressure;Samples;Min_cycle;Max_cycle;Signal;HPM_P1;HPM_P2
2024/03/31 00:02:05;;;;;;;2.15;0.85;;;9.20;1.00;;;;;;4991335;28;20064;-85
2024/03/31 00:04:31;;;;;;;1.10;0.50;;;9.20;1.00;;;;;;4990994;28;20732;-86
2024/03/31 00:06:57;;;;;;;0.88;0.45;;;9.20;1.00;;;;;;5007224;28;20057;-85
2024/03/31 00:09:27;;;;;;;0.82;0.45;;;9.10;1.00;;;;;;4977466;28;20056;-86
2024/03/31 00:11:54;;;;;;;0.77;0.40;;;9.10;1.00;;;;;;4977841;28;20132;-86
2024/03/31 00:14:20;;;;;;;0.80;0.57;;;9.10;1.00;;;;;;4977884;28;20053;-86
2024/03/31 00:16:46;;;;;;;0.40;0.40;;;9.10;1.00;;;;;;4977055;28;20175;-85
2024/03/31 00:19:13;;;;;;;0.85;0.55;;;9.00;1.00;;;;;;4978025;28;20187;-85
2024/03/31 00:21:39;;;;;;;0.85;0.75;;;9.00;1.00;;;;;;4978406;28;20054;-86
2024/03/31 00:24:08;;;;;;;0.47;0.40;;;9.00;1.00;;;;;;4978527;28;20125;-86
2024/03/31 00:26:35;;;;;;;0.60;0.40;;;9.00;1.00;;;;;;4977934;28;20361;-86
2024/03/31 00:29:05;;;;;;;0.68;0.45;;;9.00;1.00;;;;;;4975674;28;20285;-86
2024/03/31 00:31:33;;;;;;;0.95;0.65;;;9.00;1.00;;;;;;4991444;28;20050;-85
2024/03/31 00:34:02;;;;;;;0.98;0.55;;;9.00;1.00;;;;;;4975602;28;20053;-86
2024/03/31 00:36:28;;;;;;;0.57;0.40;;;8.90;6.40;;;;;;5003030;28;20072;-86
2024/03/31 00:38:54;;;;;;;0.82;0.60;;;8.90;14.90;;;;;;4978441;28;20053;-85
2024/03/31 00:41:20;;;;;;;0.40;0.35;;;8.90;19.00;;;;;;4978269;28;20842;-86
2024/03/31 00:43:46;;;;;;;0.88;0.40;;;8.90;24.40;;;;;;4979053;28;20145;-86
2024/03/31 00:46:12;;;;;;;0.55;0.38;;;8.90;32.90;;;;;;4974889;28;20061;-86
2024/03/31 00:48:39;;;;;;;0.30;0.30;;;8.80;37.60;;;;;;4988615;28;20054;-86
2024/03/31 00:51:06;;;;;;;0.60;0.35;;;8.70;43.10;;;;;;4991175;28;20049;-85
2024/03/31 00:53:34;;;;;;;0.50;0.30;;;8.70;70.10;;;;;;4991243;28;20460;-85
2024/03/31 00:56:00;;;;;;;0.68;0.43;;;8.70;91.10;;;;;;4993620;28;20099;-86
2024/03/31 00:58:35;;;;;;;0.63;0.45;;;8.60;99.30;;;;;;4977938;28;20064;-86
2024/03/31 01:01:01;;;;;;;0.73;0.40;;;8.60;99.90;;;;;;4975957;28;20446;-86
2024/03/31 01:03:28;;;;;;;0.35;0.30;;;8.60;99.90;;;;;;4976739;28;20107;-86
2024/03/31 01:05:55;;;;;;;0.35;0.35;;;8.60;99.90;;;;;;4972713;28;20327;-85
2024/03/31 01:08:22;;;;;;;0.65;0.57;;;8.50;99.90;;;;;;4975201;28;20045;-87
2024/03/31 01:10:48;;;;;;;0.32;0.32;;;8.40;99.90;;;;;;4977308;28;20053;-86
2024/03/31 01:13:16;;;;;;;0.80;0.43;;;8.40;99.90;;;;;;4977274;28;20052;-86
2024/03/31 01:15:43;;;;;;;0.25;0.25;;;8.30;99.90;;;;;;4977573;28;20061;-85
2024/03/31 01:18:15;;;;;;;0.50;0.43;;;8.30;99.90;;;;;;4977266;28;20108;-86
2024/03/31 01:20:42;;;;;;;0.30;0.30;;;8.20;99.90;;;;;;4976396;28;20770;-86
2024/03/31 01:23:08;;;;;;;0.55;0.55;;;8.10;99.90;;;;;;4976405;28;20053;-86
2024/03/31 01:25:36;;;;;;;0.50;0.50;;;8.10;99.90;;;;;;4977692;28;20057;-86
2024/03/31 01:28:02;;;;;;;0.63;0.38;;;8.10;99.90;;;;;;4971492;28;20076;-86
2024/03/31 01:30:34;;;;;;;0.77;0.50;;;8.00;99.90;;;;;;4977425;28;20140;-85
2024/03/31 01:33:02;;;;;;;0.52;0.30;;;8.00;99.90;;;;;;4995943;28;20054;-86
2024/03/31 01:35:28;;;;;;;0.40;0.30;;;7.90;99.90;;;;;;4996051;28;20163;-86
2024/03/31 01:37:56;;;;;;;0.40;0.30;;;7.90;99.90;;;;;;4995764;28;20132;-85
2024/03/31 01:40:23;;;;;;;0.50;0.40;;;7.80;99.90;;;;;;4980469;28;20058;-86
2024/03/31 01:42:49;;;;;;;0.82;0.52;;;7.80;99.90;;;;;;4996742;28;20053;-85
2024/03/31 01:45:19;;;;;;;0.40;0.30;;;7.70;99.90;;;;;;4996510;28;20058;-84
2024/03/31 01:47:45;;;;;;;0.50;0.40;;;7.70;99.90;;;;;;4983068;28;20481;-86
2024/03/31 01:50:13;;;;;;;1.15;0.30;;;7.60;99.90;;;;;;4976388;28;20058;-85
2024/03/31 01:52:47;;;;;;;0.60;0.50;;;7.50;99.90;;;;;;4975849;28;20096;-85
2024/03/31 01:55:20;;;;;;;0.85;0.50;;;7.50;99.90;;;;;;4976427;28;20588;-86
2024/03/31 01:57:49;;;;;;;0.68;0.50;;;7.50;99.90;;;;;;4995607;28;20054;-84
2024/03/31 02:00:15;;;;;;;0.82;0.47;;;7.50;99.90;;;;;;4979673;28;20057;-86
2024/03/31 02:02:47;;;;;;;0.80;0.40;;;7.40;99.90;;;;;;4979850;28;20045;-85
2024/03/31 02:05:13;;;;;;;0.50;0.47;;;7.40;99.90;;;;;;4996239;28;20501;-85
2024/03/31 02:07:43;;;;;;;0.45;0.43;;;7.40;99.90;;;;;;4979824;28;20054;-85
2024/03/31 02:10:11;;;;;;;0.60;0.40;;;7.30;99.90;;;;;;4979777;28;20053;-86
2024/03/31 02:12:40;;;;;;;0.70;0.40;;;7.20;99.90;;;;;;4979883;28;20397;-86
2024/03/31 02:15:08;;;;;;;0.70;0.40;;;7.20;99.90;;;;;;4979706;28;20050;-85
2024/03/31 02:17:34;;;;;;;0.73;0.50;;;7.10;1.00;;;;;;4979317;28;20053;-86
2024/03/31 02:20:22;;;;;;;0.50;0.35;;;7.10;1.00;;;;;;4978824;28;20050;-85
2024/03/31 02:22:50;;;;;;;0.50;0.40;;;7.10;1.00;;;;;;4995818;28;20053;-85
2024/03/31 02:25:16;;;;;;;0.38;0.38;;;7.10;1.00;;;;;;4979969;28;20053;-85
2024/03/31 02:27:44;;;;;;;0.85;0.50;;;7.10;1.00;;;;;;4979546;28;20045;-86
2024/03/31 02:30:12;;;;;;;0.47;0.47;;;7.10;1.00;;;;;;4979789;28;20057;-85
2024/03/31 02:32:38;;;;;;;1.17;0.90;;;7.10;1.00;;;;;;4995745;28;20053;-85
2024/03/31 02:35:04;;;;;;;1.42;0.50;;;7.00;1.00;;;;;;4991393;28;20464;-87
2024/03/31 02:37:35;;;;;;;0.75;0.50;;;7.00;1.00;;;;;;4998225;28;20119;-86
2024/03/31 02:40:01;;;;;;;0.90;0.55;;;7.00;1.00;;;;;;4995303;28;20156;-86
2024/03/31 02:42:34;;;;;;;1.23;0.80;;;6.90;25.10;;;;;;4991951;28;20144;-85
2024/03/31 02:45:00;;;;;;;1.02;0.75;;;6.90;99.90;;;;;;4975452;28;20129;-86
2024/03/31 02:47:39;;;;;;;2.47;1.35;;;6.90;99.90;;;;;;4976143;28;20057;-86
2024/03/31 02:50:05;;;;;;;1.45;0.80;;;6.90;99.90;;;;;;4991448;28;20054;-86
2024/03/31 02:52:32;;;;;;;0.93;0.70;;;6.90;99.90;;;;;;4992106;28;20050;-87
2024/03/31 02:55:00;;;;;;;1.10;0.65;;;6.90;1.00;;;;;;4991776;28;20057;-86
2024/03/31 02:57:27;;;;;;;1.23;0.50;;;6.90;99.90;;;;;;4991835;28;20058;-86
2024/03/31 02:59:54;;;;;;;1.65;0.90;;;6.90;99.90;;;;;;4991668;28;20054;-86
2024/03/31 03:02:23;;;;;;;1.10;0.80;;;6.90;99.90;;;;;;4993955;28;20053;-85
2024/03/31 03:04:49;;;;;;;0.85;0.70;;;6.90;99.90;;;;;;5011210;28;20072;-86
2024/03/31 03:07:16;;;;;;;0.73;0.60;;;6.90;99.90;;;;;;4994975;28;20061;-85
2024/03/31 03:09:44;;;;;;;0.82;0.70;;;6.80;99.90;;;;;;4978898;28;20049;-86
2024/03/31 03:12:10;;;;;;;0.95;0.75;;;6.90;99.90;;;;;;4979345;28;20524;-87
2024/03/31 03:14:44;;;;;;;0.60;0.55;;;6.90;99.90;;;;;;4979149;28;20191;-86
2024/03/31 03:17:16;;;;;;;0.60;0.52;;;6.80;99.90;;;;;;4975872;28;20053;-85
2024/03/31 03:20:20;;;;;;;0.75;0.65;;;6.80;99.90;;;;;;4991595;28;20050;-86
2024/03/31 03:22:47;;;;;;;1.27;0.75;;;6.80;99.90;;;;;;5010765;28;20057;-85
2024/03/31 03:25:15;;;;;;;0.70;0.70;;;6.80;99.90;;;;;;4978519;28;20823;-86
2024/03/31 03:27:41;;;;;;;0.93;0.80;;;6.80;99.90;;;;;;4975452;28;20129;-85
2024/03/31 03:30:19;;;;;;;0.65;0.50;;;6.80;1.00;;;;;;4991617;28;20191;-85
2024/03/31 03:32:50;;;;;;;0.85;0.57;;;6.80;99.90;;;;;;4995889;28;20149;-87
2024/03/31 03:35:19;;;;;;;0.50;0.50;;;6.80;99.90;;;;;;4977825;28;20456;-87
2024/03/31 03:38:11;;;;;;;0.75;0.47;;;6.70;99.90;;;;;;4990865;28;20053;-85
2024/03/31 03:40:37;;;;;;;1.17;0.77;;;6.70;99.90;;;;;;4990650;28;20057;-85
2024/03/31 03:43:04;;;;;;;1.30;0.73;;;6.70;99.90;;;;;;4996407;28;20080;-85
2024/03/31 03:45:30;;;;;;;0.68;0.60;;;6.70;99.90;;;;;;4978163;28;20061;-86
2024/03/31 03:47:56;;;;;;;2.35;0.85;;;6.60;99.90;;;;;;4977967;28;20060;-86
2024/03/31 03:50:41;;;;;;;0.93;0.70;;;6.60;99.90;;;;;;4978376;28;20088;-85
2024/03/31 03:53:10;;;;;;;1.85;0.63;;;6.50;99.90;;;;;;4994325;28;20065;-86
2024/03/31 03:55:38;;;;;;;1.23;0.57;;;6.50;99.90;;;;;;4978581;28;20045;-86
2024/03/31 03:58:06;;;;;;;1.35;1.00;;;6.50;99.90;;;;;;4975205;28;20050;-86
2024/03/31 04:00:37;;;;;;;1.05;0.70;;;6.50;99.90;;;;;;4991980;28;20053;-87
2024/03/31 04:03:16;;;;;;;0.98;0.60;;;6.40;99.90;;;;;;4998008;28;20066;-86
2024/03/31 04:05:56;;;;;;;1.50;0.70;;;6.40;99.90;;;;;;4994580;28;20053;-86
2024/03/31 04:08:22;;;;;;;1.15;0.68;;;6.40;1.00;;;;;;4993988;28;20053;-86
2024/03/31 04:10:50;;;;;;;1.35;0.90;;;6.40;1.00;;;;;;4977695;28;20052;-86
2024/03/31 04:13:16;;;;;;;1.27;0.70;;;6.40;25.70;;;;;;4973941;28;20064;-85
2024/03/31 04:15:42;;;;;;;1.38;0.80;;;6.40;99.90;;;;;;4990254;28;20089;-85
2024/03/31 04:18:08;;;;;;;1.75;1.25;;;6.40;99.90;;;;;;5000485;28;20061;-86
2024/03/31 04:20:43;;;;;;;1.48;1.05;;;6.40;99.90;;;;;;4993809;28;20059;-86
2024/03/31 04:23:10;;;;;;;3.22;1.58;;;6.50;1.00;;;;;;4993111;28;20058;-86
2024/03/31 04:25:38;;;;;;;2.53;1.75;;;6.50;93.40;;;;;;4977189;28;20049;-85
2024/03/31 04:28:10;;;;;;;2.20;1.63;;;6.50;99.90;;;;;;4976698;28;20144;-86
2024/03/31 04:30:42;;;;;;;2.80;1.58;;;6.50;99.90;;;;;;4977024;28;20374;-85
2024/03/31 04:33:12;;;;;;;2.00;1.40;;;6.60;99.90;;;;;;4977013;28;20057;-86
2024/03/31 04:35:38;;;;;;;2.15;1.50;;;6.60;99.90;;;;;;4977334;28;20083;-85
2024/03/31 04:38:05;;;;;;;2.72;1.80;;;6.60;99.90;;;;;;4977261;28;20053;-86
2024/03/31 04:41:08;;;;;;;2.58;1.60;;;6.60;99.90;;;;;;4978295;28;20382;-86
2024/03/31 04:43:34;;;;;;;3.58;2.35;;;6.60;1.00;;;;;;4958453;28;20050;-86
2024/03/31 04:46:07;;;;;;;3.15;2.15;;;6.60;2.70;;;;;;4977196;28;20058;-86
2024/03/31 04:48:33;;;;;;;;;;;6.60;99.90;;;;;;4957561;28;20050;-85
2024/03/31 04:51:06;;;;;;;4.57;2.80;;;6.60;99.90;;;;;;4977783;28;20403;-85
2024/03/31 04:53:33;;;;;;;3.63;2.73;;;6.60;1.00;;;;;;5001349;28;20064;-85
2024/03/31 04:56:02;;;;;;;3.33;2.20;;;6.60;1.00;;;;;;4995926;28;20437;-86
2024/03/31 04:58:28;;;;;;;3.92;3.08;;;6.60;99.90;;;;;;4995762;28;20058;-84
2024/03/31 05:01:05;;;;;;;3.50;2.78;;;6.70;99.90;;;;;;4981010;28;20076;-86
2024/03/31 05:03:33;;;;;;;6.68;4.65;;;6.70;99.90;;;;;;4978183;28;20497;-86
2024/03/31 05:06:02;;;;;;;6.28;4.93;;;6.80;1.00;;;;;;4979449;28;20062;-86
2024/03/31 05:08:34;;;;;;;7.25;4.63;;;6.80;99.90;;;;;;4978561;28;20057;-86
2024/03/31 05:11:01;;;;;;;5.72;4.43;;;6.90;99.90;;;;;;4979074;28;20424;-86
2024/03/31 05:13:27;;;;;;;7.15;4.97;;;7.00;99.90;;;;;;4977914;28;20053;-85
2024/03/31 05:16:10;;;;;;;6.22;4.10;;;7.00;1.00;;;;;;4977654;28;20213;-85
2024/03/31 05:18:38;;;;;;;6.03;4.32;;;7.10;1.00;;;;;;4977750;28;20080;-85
2024/03/31 05:21:07;;;;;;;5.32;3.90;;;7.20;12.10;;;;;;4976721;28;20164;-85
2024/03/31 05:23:34;;;;;;;5.15;3.45;;;7.30;39.60;;;;;;4975898;28;20519;-85
2024/03/31 05:26:02;;;;;;;6.15;4.53;;;7.30;99.90;;;;;;4977715;28;20065;-85
2024/03/31 05:28:44;;;;;;;5.88;4.35;;;7.40;92.40;;;;;;4976915;28;20049;-86
2024/03/31 05:31:10;;;;;;;6.75;4.95;;;7.40;99.90;;;;;;4975564;28;20053;-82
2024/03/31 05:33:36;;;;;;;6.30;4.93;;;7.50;99.90;;;;;;5005482;28;20136;-83
2024/03/31 05:36:02;;;;;;;5.32;4.03;;;7.60;99.90;;;;;;4989440;28;20115;-83
2024/03/31 05:38:28;;;;;;;6.95;4.57;;;7.60;99.90;;;;;;5005088;28;20053;-85
2024/03/31 05:40:56;;;;;;;9.48;7.18;;;7.70;99.90;;;;;;4974373;28;20103;-84
2024/03/31 05:43:22;;;;;;;11.30;7.05;;;7.70;99.90;;;;;;4974223;28;20049;-84
2024/03/31 05:45:47;;;;;;;7.35;5.38;;;7.80;99.90;;;;;;4973338;28;20065;-85
2024/03/31 05:48:13;;;;;;;6.95;4.95;;;7.80;99.90;;;;;;4986586;28;20060;-84
2024/03/31 05:50:40;;;;;;;6.68;4.90;;;7.90;99.90;;;;;;4990307;28;20131;-83
2024/03/31 05:53:06;;;;;;;7.68;5.75;;;8.00;99.90;;;;;;5005773;28;20436;-84
2024/03/31 05:55:34;;;;;;;8.13;5.53;;;8.00;99.90;;;;;;4991616;28;20049;-85
2024/03/31 05:58:00;;;;;;;8.27;5.97;;;8.10;99.90;;;;;;4987667;28;20074;-84
2024/03/31 06:00:26;;;;;;;9.05;6.60;;;8.10;99.90;;;;;;4990190;28;20488;-84
2024/03/31 06:02:52;;;;;;;6.82;5.15;;;8.20;99.90;;;;;;4983325;28;20152;-84
2024/03/31 06:05:19;;;;;;;9.98;6.97;;;8.20;99.90;;;;;;4974078;28;20046;-83
2024/03/31 06:07:49;;;;;;;7.43;5.55;;;8.20;99.90;;;;;;4972753;28;20037;-83
2024/03/31 06:10:15;;;;;;;9.27;6.50;;;8.30;99.90;;;;;;4987492;28;20080;-84
2024/03/31 06:12:41;;;;;;;10.20;7.70;;;8.30;99.90;;;;;;4987617;28;20117;-82
2024/03/31 06:15:07;;;;;;;9.23;6.80;;;8.30;99.90;;;;;;4987498;28;20088;-83
2024/03/31 06:17:35;;;;;;;8.82;5.95;;;8.30;99.90;;;;;;4987788;28;20252;-84
2024/03/31 06:20:02;;;;;;;7.47;5.68;;;8.40;99.90;;;;;;4986410;28;20058;-82
2024/03/31 06:22:28;;;;;;;10.68;6.88;;;8.40;99.90;;;;;;4971517;28;20060;-82
2024/03/31 06:24:54;;;;;;;7.70;6.15;;;8.50;32.50;;;;;;4986477;28;20501;-78
2024/03/31 06:27:20;;;;;;;7.32;6.07;;;8.50;1.00;;;;;;5018999;28;20534;-76
2024/03/31 06:29:49;;;;;;;9.55;6.95;;;8.50;1.00;;;;;;5018518;28;20045;-77
2024/03/31 06:32:15;;;;;;;8.68;6.25;;;8.50;99.90;;;;;;5004145;28;20431;-77
2024/03/31 06:34:42;;;;;;;9.40;6.63;;;8.60;1.00;;;;;;4999892;28;20061;-77
2024/03/31 06:37:08;;;;;;;9.30;6.85;;;8.60;99.90;;;;;;4984848;28;20590;-77
2024/03/31 06:39:34;;;;;;;8.50;6.55;;;8.70;1.00;;;;;;4999529;28;20065;-76
2024/03/31 06:42:03;;;;;;;7.38;6.30;;;8.70;1.00;;;;;;5012914;28;20054;-77
2024/03/31 06:44:30;;;;;;;7.75;6.25;;;8.80;99.90;;;;;;5012745;28;20045;-77
2024/03/31 06:46:56;;;;;;;7.25;6.15;;;8.80;99.90;;;;;;4999567;28;20050;-77
2024/03/31 06:49:22;;;;;;;7.70;5.38;;;8.80;1.00;;;;;;4995930;28;20053;-77
2024/03/31 06:51:48;;;;;;;7.85;5.80;;;8.90;99.90;;;;;;4995585;28;20813;-77
2024/03/31 06:54:15;;;;;;;6.30;4.70;;;9.00;99.90;;;;;;4982587;28;20063;-76
2024/03/31 06:56:41;;;;;;;8.25;6.60;;;9.00;99.90;;;;;;5009487;28;20056;-76
2024/03/31 06:59:07;;;;;;;7.22;6.13;;;9.00;72.10;;;;;;5000361;28;20046;-77
2024/03/31 07:01:33;;;;;;;8.93;7.22;;;9.00;29.50;;;;;;5000613;28;20107;-77
2024/03/31 07:03:59;;;;;;;8.10;6.18;;;9.00;1.00;;;;;;5000355;28;20473;-77
2024/03/31 07:06:25;;;;;;;8.30;6.03;;;9.00;1.00;;;;;;4999151;28;20459;-78
2024/03/31 07:08:51;;;;;;;7.85;6.25;;;9.10;99.90;;;;;;5016758;28;20052;-78
2024/03/31 07:11:17;;;;;;;7.13;5.90;;;9.20;99.90;;;;;;5015858;28;20048;-77
2024/03/31 07:13:43;;;;;;;10.52;7.43;;;9.20;1.00;;;;;;4983859;28;20061;-77
2024/03/31 07:16:09;;;;;;;7.40;5.28;;;9.30;99.90;;;;;;4980321;28;20487;-76
2024/03/31 07:18:35;;;;;;;10.77;7.47;;;9.40;99.90;;;;;;5000559;28;20064;-77
2024/03/31 07:21:00;;;;;;;11.98;9.13;;;9.40;99.90;;;;;;5000151;28;20291;-77
2024/03/31 07:23:26;;;;;;;9.23;6.93;;;9.50;1.00;;;;;;4979425;28;20053;-77
2024/03/31 07:25:54;;;;;;;8.73;6.63;;;9.50;1.00;;;;;;4980697;28;20057;-77
2024/03/31 07:28:20;;;;;;;10.77;8.05;;;9.50;99.90;;;;;;4999787;28;20053;-77
2024/03/31 07:30:46;;;;;;;7.15;5.75;;;9.60;99.90;;;;;;4996931;28;20054;-77
2024/03/31 07:33:12;;;;;;;8.13;6.43;;;9.70;99.90;;;;;;4996073;28;20151;-76
2024/03/31 07:35:38;;;;;;;9.30;7.35;;;9.80;1.00;;;;;;4999425;28;20084;-76
2024/03/31 07:38:04;;;;;;;11.23;8.02;;;9.80;99.90;;;;;;4998621;28;20132;-77
2024/03/31 07:40:33;;;;;;;8.18;7.10;;;9.80;99.90;;;;;;5000011;28;20115;-77
2024/03/31 07:42:59;;;;;;;10.68;7.80;;;9.90;99.90;;;;;;4982510;28;20060;-76
2024/03/31 07:45:25;;;;;;;9.43;7.03;;;9.90;4.50;;;;;;4983850;28;20649;-76
2024/03/31 07:47:51;;;;;;;9.05;7.07;;;10.00;1.00;;;;;;5011896;28;20526;-76
2024/03/31 07:50:17;;;;;;;8.45;6.93;;;10.00;23.20;;;;;;5016483;28;20107;-76
2024/03/31 07:52:44;;;;;;;10.23;7.80;;;10.20;99.90;;;;;;4999136;28;20069;-76
2024/03/31 07:55:10;;;;;;;8.40;7.20;;;10.20;99.90;;;;;;5013879;28;20542;-76
2024/03/31 07:57:37;;;;;;;7.55;6.78;;;10.30;99.90;;;;;;4997318;28;20164;-77
2024/03/31 08:00:03;;;;;;;8.02;6.45;;;10.40;99.90;;;;;;4981380;28;20057;-78
2024/03/31 08:02:29;;;;;;;9.02;7.45;;;10.50;99.90;;;;;;4998497;28;20072;-77
2024/03/31 08:04:55;;;;;;;8.13;7.05;;;10.60;34.20;;;;;;5015013;28;20521;-78
2024/03/31 08:07:21;;;;;;;9.10;6.68;;;10.70;1.00;;;;;;5015527;28;20061;-77
2024/03/31 08:09:47;;;;;;;7.00;6.13;;;10.80;1.00;;;;;;5014336;28;20144;-78
2024/03/31 08:12:13;;;;;;;9.15;7.65;;;10.80;1.00;;;;;;4999782;28;20057;-77
2024/03/31 08:14:39;;;;;;;10.40;8.32;;;10.80;1.00;;;;;;4999737;28;20053;-77
2024/03/31 08:17:05;;;;;;;8.98;7.78;;;10.80;1.00;;;;;;5000152;28;20065;-78
2024/03/31 08:19:31;;;;;;;9.02;7.90;;;10.90;1.00;;;;;;5001928;28;20125;-79
2024/03/31 08:21:56;;;;;;;10.18;8.82;;;10.90;1.00;;;;;;4986438;28;20133;-77
2024/03/31 08:24:22;;;;;;;11.65;8.70;;;10.90;1.00;;;;;;4983020;28;20385;-78
2024/03/31 08:26:48;;;;;;;8.95;7.53;;;11.00;99.90;;;;;;5004595;28;20054;-79
2024/03/31 08:29:17;;;;;;;9.07;7.78;;;11.10;1.00;;;;;;5003329;28;20049;-79
2024/03/31 08:31:43;;;;;;;7.75;6.22;;;11.20;99.90;;;;;;5003171;28;20062;-77
2024/03/31 08:34:09;;;;;;;7.40;6.38;;;11.30;99.90;;;;;;5002943;28;20049;-77
2024/03/31 08:36:35;;;;;;;6.72;4.93;;;11.30;99.90;;;;;;4982788;28;20118;-78
2024/03/31 08:39:01;;;;;;;6.20;5.22;;;11.40;99.90;;;;;;5019365;28;20449;-78
2024/03/31 08:41:33;;;;;;;6.60;4.80;;;11.50;99.90;;;;;;4983414;28;20266;-78
2024/03/31 08:44:00;;;;;;;7.43;5.60;;;11.50;99.90;;;;;;5000862;28;20079;-78
2024/03/31 08:46:26;;;;;;;4.25;3.75;;;11.50;99.90;;;;;;4970481;28;20062;-78
2024/03/31 08:48:52;;;;;;;5.95;4.60;;;11.60;99.90;;;;;;5002308;28;20052;-78
2024/03/31 08:51:18;;;;;;;5.43;4.50;;;11.70;99.90;;;;;;5001455;28;20049;-78
2024/03/31 08:53:44;;;;;;;6.00;4.60;;;11.80;99.90;;;;;;4969492;28;20053;-79
2024/03/31 08:56:10;;;;;;;6.03;4.35;;;11.90;99.90;;;;;;4985949;28;20053;-77
2024/03/31 08:58:38;;;;;;;4.93;4.00;;;12.00;99.90;;;;;;5000129;28;20060;-78
2024/03/31 09:01:04;;;;;;;5.07;3.53;;;12.00;99.90;;;;;;5002796;28;20053;-78
2024/03/31 09:03:30;;;;;;;5.25;4.00;;;12.10;99.90;;;;;;5001886;28;20072;-78
2024/03/31 09:05:56;;;;;;;4.45;3.90;;;12.00;99.90;;;;;;4966801;28;20809;-78
2024/03/31 09:08:22;;;;;;;6.38;4.35;;;12.00;99.90;;;;;;4999564;28;20053;-79
2024/03/31 09:10:47;;;;;;;7.32;5.60;;;11.90;99.90;;;;;;4985392;28;20452;-79
2024/03/31 09:13:13;;;;;;;8.32;5.60;;;11.80;99.90;;;;;;5001906;28;20057;-78
2024/03/31 09:15:40;;;;;;;7.13;5.60;;;11.70;99.90;;;;;;5002067;28;20057;-78
2024/03/31 09:18:07;;;;;;;7.00;5.35;;;11.60;99.90;;;;;;5002144;28;20045;-78
2024/03/31 09:20:33;;;;;;;7.28;6.00;;;11.60;99.90;;;;;;5014415;28;20159;-77
2024/03/31 09:22:59;;;;;;;5.70;4.60;;;11.50;99.90;;;;;;5012165;28;20159;-78
2024/03/31 09:25:25;;;;;;;6.15;4.93;;;11.50;99.90;;;;;;4983056;28;20058;-77
2024/03/31 09:27:55;;;;;;;9.15;6.57;;;11.50;99.90;;;;;;4969612;28;20061;-77
2024/03/31 09:30:23;;;;;;;7.25;5.63;;;11.40;99.90;;;;;;5018777;28;20049;-77
2024/03/31 09:32:51;;;;;;;7.57;6.13;;;11.40;99.90;;;;;;5018622;28;20536;-78
2024/03/31 09:35:17;;;;;;;7.18;6.43;;;11.40;99.90;;;;;;4986065;28;20053;-77
2024/03/31 09:37:43;;;;;;;8.63;6.57;;;11.40;99.90;;;;;;5018144;28;20142;-77
2024/03/31 09:40:10;;;;;;;8.77;6.80;;;11.30;99.90;;;;;;5018637;28;20058;-77
2024/03/31 09:42:35;;;;;;;8.43;6.43;;;11.20;99.90;;;;;;5018176;28;20488;-77
2024/03/31 09:45:03;;;;;;;11.23;8.25;;;11.20;99.90;;;;;;5001646;28;20052;-78
2024/03/31 09:47:34;;;;;;;10.70;8.20;;;11.20;99.90;;;;;;5018910;28;20057;-77
2024/03/31 09:50:08;;;;;;;11.23;8.70;;;11.20;99.90;;;;;;4985515;28;20053;-77
2024/03/31 09:52:34;;;;;;;9.20;7.00;;;11.20;99.90;;;;;;5001771;28;20057;-77
2024/03/31 09:55:10;;;;;;;10.88;8.50;;;11.30;99.90;;;;;;5000893;28;20061;-78
2024/03/31 09:57:43;;;;;;;8.95;7.72;;;11.30;99.90;;;;;;4964470;28;20058;-77
2024/03/31 10:00:15;;;;;;;10.05;8.05;;;11.40;99.90;;;;;;4982597;28;20064;-77
2024/03/31 10:03:02;;;;;;;10.17;7.53;;;11.50;99.90;;;;;;4988606;28;20061;-77
2024/03/31 10:05:39;;;;;;;8.32;6.15;;;11.60;99.90;;;;;;5018070;28;20115;-77
2024/03/31 10:08:07;;;;;;;8.43;7.22;;;11.70;99.90;;;;;;5001458;28;20476;-77
2024/03/31 10:10:32;;;;;;;9.18;7.05;;;11.90;99.90;;;;;;5018027;28;20057;-77
2024/03/31 10:12:58;;;;;;;8.27;6.63;;;12.00;99.90;;;;;;4968299;28;20064;-77
2024/03/31 10:15:24;;;;;;;6.75;4.88;;;12.20;99.90;;;;;;5000139;28;20129;-77
2024/03/31 10:17:51;;;;;;;7.75;5.68;;;12.40;99.90;;;;;;4999448;28;20692;-76
2024/03/31 10:20:18;;;;;;;10.07;7.15;;;12.40;99.90;;;;;;4999475;28;20095;-77
2024/03/31 10:22:44;;;;;;;8.70;6.95;;;12.50;99.90;;;;;;5001583;28;20060;-76
2024/03/31 10:25:11;;;;;;;9.57;7.47;;;12.70;99.90;;;;;;4965979;28;20065;-76
2024/03/31 10:27:43;;;;;;;11.77;8.50;;;12.60;99.90;;;;;;4985633;28;20153;-77
2024/03/31 10:30:10;;;;;;;10.75;9.07;;;12.60;99.90;;;;;;5001617;28;20072;-77
2024/03/31 10:32:36;;;;;;;11.13;9.43;;;12.60;99.90;;;;;;5001440;28;20686;-78
2024/03/31 10:35:03;;;;;;;9.18;8.00;;;12.80;99.90;;;;;;5001424;28;20061;-77
2024/03/31 10:37:29;;;;;;;6.78;5.65;;;12.90;99.90;;;;;;5000909;28;20061;-77
2024/03/31 10:39:55;;;;;;;8.70;7.80;;;13.10;99.90;;;;;;4984315;28;20061;-77
2024/03/31 10:42:24;;;;;;;8.57;6.75;;;13.20;99.90;;;;;;5016102;28;20144;-78
2024/03/31 10:44:52;;;;;;;8.05;6.40;;;13.10;99.90;;;;;;4985045;28;20057;-78
2024/03/31 10:47:19;;;;;;;9.20;7.20;;;13.00;99.90;;;;;;4998462;28;20513;-78
2024/03/31 10:49:45;;;;;;;7.80;6.75;;;12.90;99.90;;;;;;5000242;28;20053;-78
2024/03/31 10:52:14;;;;;;;11.52;6.90;;;12.70;99.90;;;;;;5000767;28;20072;-78
2024/03/31 10:54:40;;;;;;;7.13;5.43;;;12.60;99.90;;;;;;5012937;28;20057;-78
2024/03/31 10:57:13;;;;;;;7.65;6.47;;;12.60;99.90;;;;;;4965800;28;20618;-78
2024/03/31 10:59:40;;;;;;;8.68;7.40;;;12.50;99.90;;;;;;5000812;28;20045;-78
2024/03/31 11:02:25;;;;;;;9.27;6.40;;;12.30;99.90;;;;;;5000513;28;20045;-79
2024/03/31 11:05:01;;;;;;;8.23;7.32;;;12.40;99.90;;;;;;5000085;28;20611;-78
2024/03/31 11:07:28;;;;;;;7.95;6.13;;;12.40;99.90;;;;;;4999252;28;20492;-79
2024/03/31 11:09:53;;;;;;;8.45;5.55;;;12.40;99.90;;;;;;4999608;28;20057;-78
2024/03/31 11:12:20;;;;;;;6.93;5.72;;;12.50;99.90;;;;;;4983714;28;20179;-78
2024/03/31 11:14:46;;;;;;;8.07;6.47;;;12.50;99.90;;;;;;5000107;28;20053;-78
2024/03/31 11:17:12;;;;;;;9.35;5.68;;;12.40;99.90;;;;;;4964618;28;20304;-77
2024/03/31 11:19:38;;;;;;;7.57;6.10;;;12.50;1.00;;;;;;4999863;28;20049;-76
2024/03/31 11:22:05;;;;;;;7.10;5.75;;;12.70;1.00;;;;;;4984054;28;20527;-77
2024/03/31 11:24:32;;;;;;;6.95;5.90;;;12.90;99.90;;;;;;4995838;28;20470;-76
2024/03/31 11:26:58;;;;;;;6.50;5.25;;;13.10;1.00;;;;;;4989565;28;20053;-76
2024/03/31 11:29:24;;;;;;;6.15;4.78;;;13.30;99.90;;;;;;4980088;28;20046;-76
2024/03/31 11:31:50;;;;;;;8.30;6.15;;;13.40;1.00;;;;;;4993806;28;20057;-77
2024/03/31 11:34:17;;;;;;;6.60;5.20;;;13.50;99.90;;;;;;4999722;28;20547;-77
2024/03/31 11:36:43;;;;;;;5.88;4.65;;;13.60;99.90;;;;;;5014932;28;20129;-77
2024/03/31 11:39:09;;;;;;;7.38;5.32;;;13.80;99.90;;;;;;5000063;28;20057;-77
2024/03/31 11:41:35;;;;;;;5.32;3.95;;;13.90;99.90;;;;;;4983678;28;20453;-76
2024/03/31 11:44:01;;;;;;;4.53;3.78;;;13.90;99.90;;;;;;4979861;28;20054;-77
2024/03/31 11:46:27;;;;;;;4.57;3.72;;;14.10;99.90;;;;;;4981269;28;20136;-77
2024/03/31 11:48:53;;;;;;;5.13;4.10;;;14.30;99.90;;;;;;4967373;28;20812;-78
2024/03/31 11:51:19;;;;;;;8.55;6.30;;;14.40;99.90;;;;;;5015534;28;20053;-77
2024/03/31 11:53:45;;;;;;;6.22;5.13;;;14.30;99.90;;;;;;4986482;28;20100;-76
2024/03/31 11:56:11;;;;;;;5.15;4.18;;;14.40;99.90;;;;;;5019219;28;20548;-77
2024/03/31 11:58:37;;;;;;;3.63;3.15;;;14.80;99.90;;;;;;5019584;28;20065;-77
2024/03/31 12:01:03;;;;;;;4.70;3.72;;;15.40;99.90;;;;;;4987165;28;20065;-79
2024/03/31 12:03:29;;;;;;;3.60;3.08;;;15.70;99.90;;;;;;5004054;28;20076;-77
2024/03/31 12:05:55;;;;;;;4.03;2.95;;;15.90;95.60;;;;;;4987841;28;20143;-77
2024/03/31 12:08:21;;;;;;;3.30;2.85;;;16.20;99.90;;;;;;5002381;28;20549;-76
2024/03/31 12:10:47;;;;;;;4.30;3.38;;;16.20;99.90;;;;;;4967999;28;20777;-77
2024/03/31 12:13:16;;;;;;;3.88;3.22;;;16.20;99.90;;;;;;4993919;28;20436;-77
2024/03/31 12:15:42;;;;;;;3.55;2.65;;;16.20;99.90;;;;;;5003947;28;20136;-76
2024/03/31 12:18:11;;;;;;;3.10;2.30;;;16.50;99.90;;;;;;5002261;28;20046;-76
2024/03/31 12:20:37;;;;;;;3.35;2.75;;;16.80;99.90;;;;;;5003021;28;20061;-77
2024/03/31 12:23:04;;;;;;;4.82;3.83;;;16.70;99.90;;;;;;4985707;28;20073;-76
2024/03/31 12:25:30;;;;;;;5.18;3.65;;;16.50;99.90;;;;;;4987774;28;20060;-77
2024/03/31 12:27:56;;;;;;;4.43;3.78;;;16.30;99.90;;;;;;5002486;28;20125;-76
2024/03/31 12:30:24;;;;;;;3.42;3.00;;;16.30;99.90;;;;;;5002701;28;20045;-76
2024/03/31 12:32:50;;;;;;;4.97;2.45;;;16.40;99.90;;;;;;4991174;28;20054;-77
2024/03/31 12:35:16;;;;;;;4.53;3.35;;;16.60;99.90;;;;;;4984249;28;20049;-80
2024/03/31 12:37:42;;;;;;;3.78;3.38;;;16.80;99.90;;;;;;5014518;28;20088;-79
2024/03/31 12:40:08;;;;;;;4.90;3.47;;;17.10;99.90;;;;;;5002679;28;20084;-80
2024/03/31 12:42:41;;;;;;;3.70;3.20;;;17.10;99.90;;;;;;4988042;28;20092;-82
2024/03/31 12:45:07;;;;;;;;;;;17.60;99.90;;;;;;5003970;28;20421;-76
2024/03/31 12:47:33;;;;;;;4.93;4.35;;;17.50;19.20;;;;;;4987088;28;19929;-79
2024/03/31 12:49:59;;;;;;;4.15;3.75;;;17.50;1.00;;;;;;5019841;28;20049;-79
2024/03/31 12:52:28;;;;;;;4.00;3.60;;;17.70;99.90;;;;;;4985164;28;20056;-79
2024/03/31 12:54:53;;;;;;;6.82;4.70;;;17.60;99.90;;;;;;5018553;28;20085;-78
2024/03/31 12:57:19;;;;;;;5.38;4.15;;;17.60;99.90;;;;;;5000987;28;20820;-79
2024/03/31 12:59:45;;;;;;;5.32;4.22;;;17.40;99.90;;;;;;4984127;28;20062;-79